Time;durP1;ratioP1;P1;durP2;ratioP2;P2;SDS_P1;SDS_P2;PMS_P1;PMS_P2;Temp;Humidity;BMP_temperature;BMP_pressure;BME280_temperature;BME280_humidity;BME280_pressure;Samples;Min_cycle;Max_cycle;Signal;HPM_P1;HPM_P2
2022/12/04 00:01:37;;;;;;;52.28;30.08;;;;;;;;;;10183585;28;20042;-73
2022/12/04 00:06:33;;;;;;;49.80;29.40;;;;;;;;;;10181151;28;20046;-73
2022/12/04 00:11:30;;;;;;;47.60;28.70;;;;;;;;;;10181736;28;20049;-73
2022/12/04 00:16:28;;;;;;;44.25;28.25;;;;;;;;;;10183364;28;20044;-72
2022/12/04 00:21:24;;;;;;;51.10;29.63;;;;;;;;;;10195190;28;20184;-73
2022/12/04 00:26:22;;;;;;;44.20;27.67;;;;;;;;;;10194678;28;20054;-71
2022/12/04 00:31:20;;;;;;;44.85;28.38;;;;;;;;;;10200588;28;20042;-71
2022/12/04 00:36:18;;;;;;;50.05;29.98;;;;;;;;;;10197001;28;20073;-72
2022/12/04 00:41:16;;;;;;;48.47;30.52;;;;;;;;;;10205367;28;20061;-73
2022/12/04 00:46:12;;;;;;;43.05;27.73;;;;;;;;;;10193957;28;20045;-72
2022/12/04 00:51:10;;;;;;;45.20;27.95;;;;;;;;;;10192570;28;20046;-73
2022/12/04 00:56:08;;;;;;;42.97;26.42;;;;;;;;;;10194253;28;20042;-73
2022/12/04 01:01:06;;;;;;;45.58;27.25;;;;;;;;;;10193516;28;20042;-73
2022/12/04 01:06:03;;;;;;;46.85;26.80;;;;;;;;;;10193464;28;20088;-73
2022/12/04 01:11:03;;;;;;;47.58;29.25;;;;;;;;;;10202764;28;20197;-73
2022/12/04 01:16:00;;;;;;;40.92;26.77;;;;;;;;;;10191232;28;20053;-72
2022/12/04 01:20:56;;;;;;;52.22;28.98;;;;;;;;;;10195287;28;20046;-72
2022/12/04 01:25:53;;;;;;;46.13;27.52;;;;;;;;;;10198793;28;20050;-71
2022/12/04 01:30:59;;;;;;;45.15;27.17;;;;;;;;;;10192017;28;20046;-72
2022/12/04 01:35:57;;;;;;;47.67;27.88;;;;;;;;;;10200187;28;20553;-73
2022/12/04 01:40:53;;;;;;;48.67;29.33;;;;;;;;;;10192808;28;20052;-74
2022/12/04 01:45:54;;;;;;;46.08;28.40;;;;;;;;;;10193572;28;20057;-74
2022/12/04 01:50:52;;;;;;;45.55;27.88;;;;;;;;;;10192289;28;20556;-74
2022/12/04 01:55:49;;;;;;;50.17;28.50;;;;;;;;;;10185514;28;20053;-75
2022/12/04 02:00:46;;;;;;;53.47;30.20;;;;;;;;;;10190983;28;20145;-74
2022/12/04 02:05:46;;;;;;;47.08;27.85;;;;;;;;;;10193585;28;20390;-71
2022/12/04 02:11:04;;;;;;;51.10;30.35;;;;;;;;;;10199187;28;20057;-71
2022/12/04 02:16:13;;;;;;;53.25;31.08;;;;;;;;;;10195023;28;20129;-73
2022/12/04 02:21:15;;;;;;;49.58;28.63;;;;;;;;;;10192813;28;20247;-72
2022/12/04 02:26:21;;;;;;;44.25;28.52;;;;;;;;;;10183069;28;20472;-71
2022/12/04 02:31:20;;;;;;;48.20;29.95;;;;;;;;;;10189450;28;20045;-73
2022/12/04 02:36:21;;;;;;;47.30;27.40;;;;;;;;;;10194887;28;20413;-71
2022/12/04 02:41:35;;;;;;;46.90;28.33;;;;;;;;;;10187055;28;20449;-71
2022/12/04 02:46:40;;;;;;;46.60;29.90;;;;;;;;;;10190719;28;20137;-71
2022/12/04 02:51:38;;;;;;;51.05;30.52;;;;;;;;;;10192642;28;20136;-71
2022/12/04 02:56:36;;;;;;;55.78;29.77;;;;;;;;;;10171884;28;20042;-71
2022/12/04 03:01:38;;;;;;;46.53;28.35;;;;;;;;;;10182670;28;20498;-71
2022/12/04 03:06:35;;;;;;;53.37;29.70;;;;;;;;;;10207244;28;20041;-71
2022/12/04 03:11:34;;;;;;;45.65;27.80;;;;;;;;;;10185221;28;20045;-71
2022/12/04 03:16:33;;;;;;;53.58;29.88;;;;;;;;;;10182168;28;20057;-72
2022/12/04 03:21:32;;;;;;;47.22;29.38;;;;;;;;;;10190013;28;20046;-72
2022/12/04 03:26:37;;;;;;;52.25;30.65;;;;;;;;;;10182863;28;20042;-71
2022/12/04 03:31:43;;;;;;;53.10;30.98;;;;;;;;;;10187291;28;20042;-72
2022/12/04 03:36:48;;;;;;;45.20;27.40;;;;;;;;;;10186848;28;20128;-73
2022/12/04 03:41:54;;;;;;;46.55;29.33;;;;;;;;;;10179266;28;20046;-71
2022/12/04 03:46:53;;;;;;;54.13;31.58;;;;;;;;;;10183579;28;20468;-71
2022/12/04 03:51:59;;;;;;;48.67;29.52;;;;;;;;;;10185207;28;20053;-74
2022/12/04 03:57:24;;;;;;;47.28;29.05;;;;;;;;;;10192164;28;20520;-73
2022/12/04 04:02:23;;;;;;;50.55;31.15;;;;;;;;;;10174466;28;20050;-72
2022/12/04 04:07:29;;;;;;;51.25;30.45;;;;;;;;;;10188581;28;20049;-73
2022/12/04 04:12:34;;;;;;;50.47;31.05;;;;;;;;;;10190349;28;20390;-73
2022/12/04 04:28:04;;;;;;;48.33;29.95;;;;;;;;;;10192628;28;20053;-73
2022/12/04 04:33:11;;;;;;;51.63;29.95;;;;;;;;;;10190859;28;20042;-72
2022/12/04 04:38:07;;;;;;;47.15;28.85;;;;;;;;;;10201994;28;20042;-73
2022/12/04 04:43:09;;;;;;;52.05;32.22;;;;;;;;;;10196616;28;20412;-71
2022/12/04 04:48:11;;;;;;;46.13;31.30;;;;;;;;;;10188968;28;20136;-72
2022/12/04 04:53:11;;;;;;;54.58;31.00;;;;;;;;;;10189281;28;20472;-73
2022/12/04 04:58:08;;;;;;;50.58;30.60;;;;;;;;;;10196247;28;20125;-73
2022/12/04 05:03:05;;;;;;;48.78;32.70;;;;;;;;;;10192479;28;20053;-72
2022/12/04 05:08:01;;;;;;;54.60;33.20;;;;;;;;;;10195696;28;20537;-73
2022/12/04 05:12:57;;;;;;;49.20;30.90;;;;;;;;;;10186245;28;20045;-71
2022/12/04 05:17:54;;;;;;;48.58;31.48;;;;;;;;;;10195366;28;20408;-71
2022/12/04 05:22:50;;;;;;;48.03;29.88;;;;;;;;;;10189343;28;20056;-71
2022/12/04 05:27:46;;;;;;;50.00;31.00;;;;;;;;;;10188549;28;20145;-72
2022/12/04 05:32:43;;;;;;;49.13;32.28;;;;;;;;;;10195886;28;20052;-73
2022/12/04 05:37:39;;;;;;;53.05;31.83;;;;;;;;;;10196081;28;20057;-72
2022/12/04 05:42:36;;;;;;;47.20;32.13;;;;;;;;;;10189819;28;20041;-73
2022/12/04 05:47:36;;;;;;;48.60;31.13;;;;;;;;;;10186639;28;20046;-73
2022/12/04 05:52:32;;;;;;;49.60;31.35;;;;;;;;;;10184583;28;20052;-74
2022/12/04 05:57:28;;;;;;;47.10;32.60;;;;;;;;;;10188688;28;20052;-72
2022/12/04 06:02:25;;;;;;;53.75;32.60;;;;;;;;;;10192128;28;20457;-72
2022/12/04 06:07:21;;;;;;;53.35;32.60;;;;;;;;;;10188048;28;20042;-72
2022/12/04 06:12:18;;;;;;;51.63;31.98;;;;;;;;;;10188483;28;20046;-72
2022/12/04 06:17:14;;;;;;;54.25;32.30;;;;;;;;;;10185450;28;20045;-72
2022/12/04 06:22:10;;;;;;;55.60;33.20;;;;;;;;;;10185736;28;20073;-71
2022/12/04 06:27:06;;;;;;;51.90;33.65;;;;;;;;;;10182580;28;20046;-71
2022/12/04 06:32:23;;;;;;;49.88;33.35;;;;;;;;;;10191544;28;20042;-71
2022/12/04 06:37:20;;;;;;;56.67;34.75;;;;;;;;;;10184217;28;20537;-71
2022/12/04 06:42:17;;;;;;;56.33;33.88;;;;;;;;;;10187498;28;20042;-71
2022/12/04 06:47:13;;;;;;;52.10;35.08;;;;;;;;;;10182506;28;20124;-71
2022/12/04 06:52:09;;;;;;;53.08;34.53;;;;;;;;;;10185503;28;20060;-71
2022/12/04 06:57:05;;;;;;;51.28;33.05;;;;;;;;;;10190625;28;20597;-73
2022/12/04 07:02:02;;;;;;;55.45;33.72;;;;;;;;;;10194858;28;20049;-73
2022/12/04 07:06:58;;;;;;;56.85;34.85;;;;;;;;;;10184298;28;20684;-73
2022/12/04 07:11:54;;;;;;;51.95;35.65;;;;;;;;;;10179431;28;20042;-73
2022/12/04 07:16:51;;;;;;;60.42;35.10;;;;;;;;;;10184649;28;20076;-74
2022/12/04 07:21:47;;;;;;;63.22;34.53;;;;;;;;;;10177201;28;20056;-73
2022/12/04 07:26:43;;;;;;;59.50;35.55;;;;;;;;;;10174594;28;20437;-73
2022/12/04 07:31:40;;;;;;;55.90;36.00;;;;;;;;;;10187449;28;20045;-71
2022/12/04 07:36:37;;;;;;;57.53;34.92;;;;;;;;;;10183898;28;20587;-71
2022/12/04 07:41:33;;;;;;;58.38;35.47;;;;;;;;;;10185234;28;20049;-71
2022/12/04 07:46:30;;;;;;;58.38;36.38;;;;;;;;;;10187767;28;20065;-73
2022/12/04 07:51:30;;;;;;;59.15;37.53;;;;;;;;;;9969739;28;20834;-74
2022/12/04 07:56:44;;;;;;;56.67;36.85;;;;;;;;;;7912259;28;21958;-69
2022/12/04 08:01:42;;;;;;;62.95;36.55;;;;;;;;;;9439917;28;20077;-75
2022/12/04 08:06:38;;;;;;;56.67;36.45;;;;;;;;;;10180122;28;20666;-75
2022/12/04 08:11:35;;;;;;;58.22;36.42;;;;;;;;;;10180268;28;20049;-74
2022/12/04 08:16:31;;;;;;;58.10;36.03;;;;;;;;;;10177202;28;20034;-75
2022/12/04 08:21:29;;;;;;;64.43;37.88;;;;;;;;;;10180098;28;20037;-75
2022/12/04 08:26:27;;;;;;;63.53;39.72;;;;;;;;;;10182472;28;20041;-76
2022/12/04 08:31:24;;;;;;;58.20;38.38;;;;;;;;;;10183171;28;20046;-76
2022/12/04 08:36:21;;;;;;;59.22;37.17;;;;;;;;;;10164052;28;20457;-71
2022/12/04 08:41:19;;;;;;;60.17;36.95;;;;;;;;;;10167691;28;20060;-72
2022/12/04 08:46:16;;;;;;;64.80;38.03;;;;;;;;;;10166857;28;20128;-72
2022/12/04 08:51:14;;;;;;;60.92;37.28;;;;;;;;;;10168095;28;20042;-74
2022/12/04 08:56:11;;;;;;;60.25;38.92;;;;;;;;;;10172385;28;20046;-73
2022/12/04 09:01:09;;;;;;;54.35;35.92;;;;;;;;;;10162622;28;20038;-73
2022/12/04 09:06:06;;;;;;;57.67;35.95;;;;;;;;;;10166824;28;20050;-69
2022/12/04 09:11:04;;;;;;;54.72;33.17;;;;;;;;;;10184638;28;20548;-74
2022/12/04 09:16:05;;;;;;;58.78;36.90;;;;;;;;;;10187231;28;20111;-72
2022/12/04 09:21:03;;;;;;;39.40;28.85;;;;;;;;;;10179380;28;20029;-78
2022/12/04 09:26:00;;;;;;;57.88;34.35;;;;;;;;;;10180151;28;20044;-79
2022/12/04 09:31:01;;;;;;;55.28;35.58;;;;;;;;;;10169548;28;20454;-73
2022/12/04 09:35:58;;;;;;;56.90;34.33;;;;;;;;;;10169363;28;20042;-75
2022/12/04 09:41:00;;;;;;;59.28;35.92;;;;;;;;;;10158145;28;20053;-74
2022/12/04 09:45:59;;;;;;;54.03;33.30;;;;;;;;;;10168120;28;20529;-70
2022/12/04 09:50:56;;;;;;;51.72;34.10;;;;;;;;;;10170116;28;20108;-69
2022/12/04 09:56:05;;;;;;;55.60;35.03;;;;;;;;;;10174314;28;20049;-72
2022/12/04 10:01:02;;;;;;;48.40;33.10;;;;;;;;;;10172549;28;20529;-73
2022/12/04 10:06:14;;;;;;;56.90;34.67;;;;;;;;;;10184329;28;20041;-72
2022/12/04 10:11:31;;;;;;;55.33;35.17;;;;;;;;;;10179830;28;20046;-72
2022/12/04 10:16:34;;;;;;;50.13;34.85;;;;;;;;;;10172513;28;20062;-71
2022/12/04 10:21:49;;;;;;;45.50;33.60;;;;;;;;;;10176634;28;20490;-71
2022/12/04 10:26:47;;;;;;;43.58;32.17;;;;;;;;;;10179868;28;20665;-72
2022/12/04 10:31:45;;;;;;;48.75;31.85;;;;;;;;;;10170399;28;20576;-71
2022/12/04 10:36:44;;;;;;;47.47;33.35;;;;;;;;;;10175149;28;20057;-71
2022/12/04 10:41:58;;;;;;;46.90;32.30;;;;;;;;;;10168091;28;20053;-69
2022/12/04 10:46:57;;;;;;;48.33;32.50;;;;;;;;;;10170141;28;20712;-69
2022/12/04 10:51:54;;;;;;;44.78;31.48;;;;;;;;;;10171142;28;20188;-69
2022/12/04 10:56:55;;;;;;;45.08;31.02;;;;;;;;;;10173196;28;20518;-70
2022/12/04 11:01:58;;;;;;;48.92;32.75;;;;;;;;;;10177415;28;20549;-72
2022/12/04 11:07:03;;;;;;;47.22;34.20;;;;;;;;;;10168938;28;20041;-71
2022/12/04 11:12:29;;;;;;;48.58;33.05;;;;;;;;;;10166340;28;20046;-71
2022/12/04 11:17:25;;;;;;;54.53;34.30;;;;;;;;;;10145918;28;21284;-71
2022/12/04 11:22:22;;;;;;;45.13;31.15;;;;;;;;;;10165009;28;20046;-71
2022/12/04 11:27:22;;;;;;;50.30;34.00;;;;;;;;;;10165184;28;20050;-70
2022/12/04 11:32:23;;;;;;;51.65;32.85;;;;;;;;;;10160525;28;20141;-71
2022/12/04 11:37:23;;;;;;;45.47;31.37;;;;;;;;;;10172667;28;20119;-72
2022/12/04 11:42:27;;;;;;;43.50;31.13;;;;;;;;;;10174046;28;20060;-71
2022/12/04 11:47:25;;;;;;;51.40;34.78;;;;;;;;;;10182335;28;20046;-71
2022/12/04 11:52:34;;;;;;;45.40;32.50;;;;;;;;;;10188502;28;20065;-71
2022/12/04 11:57:30;;;;;;;47.92;32.80;;;;;;;;;;10180376;28;20037;-72
2022/12/04 12:02:33;;;;;;;49.10;35.15;;;;;;;;;;10173666;28;20568;-71
2022/12/04 12:07:33;;;;;;;46.00;32.88;;;;;;;;;;10179993;28;20605;-71
2022/12/04 12:12:36;;;;;;;46.70;33.70;;;;;;;;;;10191155;28;20568;-70
2022/12/04 12:17:33;;;;;;;48.13;34.58;;;;;;;;;;10168868;28;20046;-71
2022/12/04 12:22:39;;;;;;;44.50;33.53;;;;;;;;;;10199296;28;20048;-69
2022/12/04 12:27:55;;;;;;;52.25;33.25;;;;;;;;;;10183495;28;20049;-69
2022/12/04 12:32:57;;;;;;;47.38;32.95;;;;;;;;;;10171733;28;20538;-69
2022/12/04 12:37:58;;;;;;;45.15;31.38;;;;;;;;;;10178602;28;20033;-71
2022/12/04 12:43:05;;;;;;;42.05;32.28;;;;;;;;;;10180618;28;20589;-72
2022/12/04 12:48:07;;;;;;;42.13;31.50;;;;;;;;;;10196879;28;20103;-71
2022/12/04 12:53:09;;;;;;;43.38;31.65;;;;;;;;;;10168449;28;20103;-72
2022/12/04 12:58:10;;;;;;;43.40;30.70;;;;;;;;;;10181739;28;20066;-71
2022/12/04 13:03:26;;;;;;;43.13;33.58;;;;;;;;;;10175190;28;20046;-72
2022/12/04 13:08:24;;;;;;;43.58;33.03;;;;;;;;;;10186271;28;20049;-72
2022/12/04 13:13:26;;;;;;;43.53;32.58;;;;;;;;;;10171405;28;20046;-71
2022/12/04 13:18:34;;;;;;;42.65;32.08;;;;;;;;;;10178698;28;20484;-71
2022/12/04 13:23:49;;;;;;;41.95;33.28;;;;;;;;;;10189583;28;20505;-72
2022/12/04 13:29:07;;;;;;;39.35;30.88;;;;;;;;;;10178870;28;20061;-73
2022/12/04 13:34:22;;;;;;;44.30;31.85;;;;;;;;;;10192276;28;20132;-67
2022/12/04 13:39:34;;;;;;;40.17;31.58;;;;;;;;;;10193267;28;20042;-68
2022/12/04 13:44:31;;;;;;;37.28;29.30;;;;;;;;;;10187647;28;20045;-72
2022/12/04 13:49:32;;;;;;;37.58;30.50;;;;;;;;;;10187929;28;20037;-71
2022/12/04 13:54:30;;;;;;;38.28;31.42;;;;;;;;;;10182583;28;20115;-72
2022/12/04 13:59:27;;;;;;;41.42;33.65;;;;;;;;;;10178506;28;20042;-72
2022/12/04 14:04:23;;;;;;;29.88;26.90;;;;;;;;;;10177866;28;20604;-70
2022/12/04 14:09:20;;;;;;;40.58;34.10;;;;;;;;;;10176876;28;20056;-70
2022/12/04 14:14:22;;;;;;;41.13;34.10;;;;;;;;;;10178929;28;20081;-72
2022/12/04 14:19:19;;;;;;;;;;;;;;;;;;10182739;28;20046;-71
2022/12/04 14:24:36;;;;;;;42.13;35.70;;;;;;;;;;10178476;28;19971;-72
2022/12/04 14:29:58;;;;;;;40.40;35.78;;;;;;;;;;10175824;28;20042;-73
2022/12/04 14:34:55;;;;;;;41.80;35.03;;;;;;;;;;10168200;28;20569;-72
2022/12/04 14:39:54;;;;;;;47.42;38.72;;;;;;;;;;10175120;28;20038;-72
2022/12/04 14:44:58;;;;;;;47.83;39.00;;;;;;;;;;10158723;28;20065;-72
2022/12/04 14:50:07;;;;;;;49.85;39.72;;;;;;;;;;10172810;28;20125;-72
2022/12/04 14:55:11;;;;;;;46.33;39.22;;;;;;;;;;10178224;28;20108;-71
2022/12/04 15:00:16;;;;;;;49.42;41.15;;;;;;;;;;10168053;28;20525;-71
2022/12/04 15:05:24;;;;;;;47.25;40.78;;;;;;;;;;10175515;28;20081;-71
2022/12/04 15:15:43;;;;;;;53.10;40.72;;;;;;;;;;10175971;28;20446;-72
2022/12/04 15:20:52;;;;;;;51.90;42.95;;;;;;;;;;10177317;28;20140;-72
2022/12/04 15:25:51;;;;;;;52.38;42.83;;;;;;;;;;10173076;28;20054;-72
2022/12/04 15:30:48;;;;;;;54.50;44.65;;;;;;;;;;10170504;28;20046;-72
2022/12/04 15:35:48;;;;;;;48.85;42.90;;;;;;;;;;10174874;28;20049;-72
2022/12/04 15:40:49;;;;;;;55.88;45.88;;;;;;;;;;10173223;28;20483;-73
2022/12/04 15:45:45;;;;;;;53.58;45.08;;;;;;;;;;10168993;28;20061;-73
2022/12/04 15:50:42;;;;;;;55.40;48.20;;;;;;;;;;10171547;28;20071;-73
2022/12/04 15:55:45;;;;;;;56.15;48.17;;;;;;;;;;10187264;28;20433;-73
2022/12/04 16:00:42;;;;;;;53.38;44.50;;;;;;;;;;10177952;28;20133;-74
2022/12/04 16:05:39;;;;;;;44.72;40.65;;;;;;;;;;10183956;28;20808;-72
2022/12/04 16:10:36;;;;;;;52.42;46.85;;;;;;;;;;10184782;28;20054;-72
2022/12/04 16:15:42;;;;;;;53.80;44.90;;;;;;;;;;10184115;28;20133;-73
2022/12/04 16:20:39;;;;;;;54.17;48.35;;;;;;;;;;10175898;28;20057;-73
2022/12/04 16:25:36;;;;;;;53.08;47.25;;;;;;;;;;10183245;28;20064;-73
2022/12/04 16:30:34;;;;;;;51.38;45.47;;;;;;;;;;10189938;28;20124;-73
2022/12/04 16:35:30;;;;;;;52.28;46.35;;;;;;;;;;10200720;28;20053;-73
2022/12/04 16:40:27;;;;;;;52.42;47.03;;;;;;;;;;10197800;28;20598;-73
2022/12/04 16:45:26;;;;;;;53.58;47.97;;;;;;;;;;10189964;28;20092;-72
2022/12/04 16:50:25;;;;;;;52.50;47.20;;;;;;;;;;10187036;28;20520;-71
2022/12/04 16:55:22;;;;;;;54.15;48.33;;;;;;;;;;10197408;28;20053;-73
2022/12/04 17:00:18;;;;;;;55.92;50.10;;;;;;;;;;10186645;28;20513;-72
2022/12/04 17:05:19;;;;;;;50.80;45.78;;;;;;;;;;10195562;28;20156;-74
2022/12/04 17:10:15;;;;;;;54.70;49.22;;;;;;;;;;10185886;28;20052;-71
2022/12/04 17:15:18;;;;;;;58.10;52.28;;;;;;;;;;10193194;28;20046;-73
2022/12/04 17:20:16;;;;;;;49.30;44.80;;;;;;;;;;10186652;28;20050;-74
2022/12/04 17:25:12;;;;;;;56.00;50.42;;;;;;;;;;10185568;28;20046;-73
2022/12/04 17:30:09;;;;;;;53.80;48.25;;;;;;;;;;10188366;28;20046;-72
2022/12/04 17:35:07;;;;;;;59.35;50.33;;;;;;;;;;10179328;28;20153;-71
2022/12/04 17:40:05;;;;;;;56.40;51.17;;;;;;;;;;10182503;28;20050;-71
2022/12/04 17:45:01;;;;;;;55.58;50.00;;;;;;;;;;10181175;28;20088;-72
2022/12/04 17:49:58;;;;;;;56.22;51.08;;;;;;;;;;10179666;28;20137;-72
2022/12/04 17:54:54;;;;;;;52.92;48.30;;;;;;;;;;10173748;28;20037;-72
2022/12/04 17:59:52;;;;;;;55.47;50.38;;;;;;;;;;10175143;28;21081;-74
2022/12/04 18:04:48;;;;;;;53.03;48.05;;;;;;;;;;10163933;28;20085;-71
2022/12/04 18:09:45;;;;;;;53.60;48.45;;;;;;;;;;10176661;28;20056;-71
2022/12/04 18:14:51;;;;;;;52.70;47.72;;;;;;;;;;10168606;28;20172;-72
2022/12/04 18:19:50;;;;;;;50.10;45.55;;;;;;;;;;10174607;28;20060;-72
2022/12/04 18:24:46;;;;;;;51.03;46.25;;;;;;;;;;10179871;28;20077;-73
2022/12/04 18:29:48;;;;;;;50.05;45.08;;;;;;;;;;10170560;28;20586;-72
2022/12/04 18:34:45;;;;;;;47.35;42.95;;;;;;;;;;10172511;28;20050;-73
2022/12/04 18:39:41;;;;;;;48.28;43.72;;;;;;;;;;10184276;28;20038;-73
2022/12/04 18:44:38;;;;;;;47.80;43.30;;;;;;;;;;10179757;28;20068;-72
2022/12/04 18:49:37;;;;;;;47.92;43.15;;;;;;;;;;10179792;28;20528;-73
2022/12/04 18:54:33;;;;;;;46.97;42.90;;;;;;;;;;10189089;28;20041;-73
2022/12/04 18:59:32;;;;;;;47.20;42.95;;;;;;;;;;10184580;28;20573;-73
2022/12/04 19:04:31;;;;;;;43.35;39.50;;;;;;;;;;10179008;28;20138;-73
2022/12/04 19:09:27;;;;;;;48.40;43.65;;;;;;;;;;10180953;28;20056;-73
2022/12/04 19:14:47;;;;;;;47.80;43.22;;;;;;;;;;10174554;28;20558;-73
2022/12/04 19:19:43;;;;;;;43.95;39.85;;;;;;;;;;10167129;28;20053;-72
2022/12/04 19:24:40;;;;;;;47.05;42.50;;;;;;;;;;10181183;28;20058;-72
2022/12/04 19:29:37;;;;;;;47.50;42.92;;;;;;;;;;10183018;28;20046;-73
2022/12/04 19:34:35;;;;;;;47.25;42.20;;;;;;;;;;10176818;28;20072;-73
2022/12/04 19:39:33;;;;;;;46.42;41.40;;;;;;;;;;10192203;28;20092;-73
2022/12/04 19:44:32;;;;;;;45.15;40.53;;;;;;;;;;10191788;28;20045;-71
2022/12/04 19:49:45;;;;;;;39.97;35.92;;;;;;;;;;10191253;28;20140;-72
2022/12/04 19:54:42;;;;;;;43.15;38.55;;;;;;;;;;10181244;28;20046;-73
2022/12/04 19:59:39;;;;;;;45.50;40.38;;;;;;;;;;10188376;28;20049;-71
2022/12/04 20:04:44;;;;;;;43.90;39.28;;;;;;;;;;10188062;28;20050;-71
2022/12/04 20:09:46;;;;;;;43.10;38.55;;;;;;;;;;10192305;28;20514;-73
2022/12/04 20:14:47;;;;;;;44.00;39.13;;;;;;;;;;10181935;28;20121;-73
2022/12/04 20:19:44;;;;;;;43.15;38.72;;;;;;;;;;10191165;28;20141;-74
2022/12/04 20:24:43;;;;;;;41.50;37.10;;;;;;;;;;10188600;28;20049;-74
2022/12/04 20:29:39;;;;;;;40.75;36.55;;;;;;;;;;10196953;28;20046;-74
2022/12/04 20:34:36;;;;;;;41.33;36.85;;;;;;;;;;10181807;28;20034;-73
2022/12/04 20:39:39;;;;;;;42.17;37.63;;;;;;;;;;10171025;28;20477;-73
2022/12/04 20:44:38;;;;;;;34.03;30.60;;;;;;;;;;10178302;28;20073;-74
2022/12/04 20:49:36;;;;;;;40.70;36.55;;;;;;;;;;10193828;28;20491;-74
2022/12/04 20:54:33;;;;;;;39.38;35.28;;;;;;;;;;10183796;28;20041;-74
2022/12/04 20:59:36;;;;;;;40.47;35.28;;;;;;;;;;10187631;28;20034;-73
2022/12/04 21:04:37;;;;;;;37.28;33.33;;;;;;;;;;10184341;28;20137;-73
2022/12/04 21:09:33;;;;;;;39.70;35.63;;;;;;;;;;10197158;28;20817;-73
2022/12/04 21:19:47;;;;;;;42.58;38.08;;;;;;;;;;10179777;28;20049;-70
2022/12/04 21:24:45;;;;;;;40.35;36.28;;;;;;;;;;10159899;28;20141;-69
2022/12/04 21:29:42;;;;;;;45.65;40.65;;;;;;;;;;10195325;28;20070;-72
2022/12/04 21:34:39;;;;;;;41.97;37.53;;;;;;;;;;10193666;28;20053;-72
2022/12/04 21:39:38;;;;;;;42.00;37.47;;;;;;;;;;10177682;28;20048;-72
2022/12/04 21:44:34;;;;;;;42.13;37.70;;;;;;;;;;10170768;28;20150;-72
2022/12/04 21:49:34;;;;;;;45.45;39.95;;;;;;;;;;10176283;28;20081;-73
2022/12/04 21:54:33;;;;;;;42.78;38.22;;;;;;;;;;10174870;28;20038;-73
2022/12/04 21:59:34;;;;;;;42.05;37.78;;;;;;;;;;10169906;28;20053;-72
2022/12/04 22:04:33;;;;;;;42.38;37.92;;;;;;;;;;10180797;28;20045;-73
2022/12/04 22:09:30;;;;;;;41.70;37.45;;;;;;;;;;10180173;28;20085;-73
2022/12/04 22:14:29;;;;;;;46.60;41.53;;;;;;;;;;10179255;28;20038;-73
2022/12/04 22:19:28;;;;;;;48.30;42.13;;;;;;;;;;10179799;28;20046;-73
2022/12/04 22:24:24;;;;;;;46.50;41.72;;;;;;;;;;10198469;28;20122;-71
2022/12/04 22:29:24;;;;;;;46.20;41.65;;;;;;;;;;10185048;28;20524;-74
2022/12/04 22:34:42;;;;;;;47.13;42.20;;;;;;;;;;10204709;28;20046;-74
2022/12/04 22:39:41;;;;;;;49.85;44.55;;;;;;;;;;10194536;28;20104;-69
2022/12/04 22:44:40;;;;;;;45.40;41.20;;;;;;;;;;10186658;28;20046;-69
2022/12/04 22:49:42;;;;;;;46.53;41.60;;;;;;;;;;10199343;28;20050;-73
2022/12/04 22:54:44;;;;;;;47.20;42.25;;;;;;;;;;10174463;28;20046;-73
2022/12/04 22:59:43;;;;;;;50.92;44.97;;;;;;;;;;10197968;28;20042;-73
2022/12/04 23:04:44;;;;;;;49.97;44.67;;;;;;;;;;10196310;28;20046;-70
2022/12/04 23:09:46;;;;;;;50.47;45.13;;;;;;;;;;10198722;28;20054;-73
2022/12/04 23:14:45;;;;;;;51.33;46.10;;;;;;;;;;10196106;28;20092;-73
2022/12/04 23:19:41;;;;;;;53.08;47.35;;;;;;;;;;10196329;28;20414;-69
2022/12/04 23:24:40;;;;;;;49.17;44.40;;;;;;;;;;10194885;28;20050;-70
2022/12/04 23:29:39;;;;;;;53.95;48.42;;;;;;;;;;10177090;28;20088;-69
2022/12/04 23:34:54;;;;;;;53.05;47.65;;;;;;;;;;10195350;28;20041;-69
2022/12/04 23:39:52;;;;;;;50.30;45.58;;;;;;;;;;10184890;28;20075;-74
2022/12/04 23:44:53;;;;;;;54.75;49.40;;;;;;;;;;10191995;28;20053;-74
2022/12/04 23:49:55;;;;;;;53.65;48.28;;;;;;;;;;10183153;28;20100;-73
2022/12/04 23:54:54;;;;;;;55.33;49.95;;;;;;;;;;10190084;28;20127;-73
2022/12/04 23:59:59;;;;;;;56.90;51.50;;;;;;;;;;10202778;28;20041;-73
